Time;durP1;ratioP1;P1;durP2;ratioP2;P2;SDS_P1;SDS_P2;PMS_P1;PMS_P2;Temp;Humidity;BMP_temperature;BMP_pressure;BME280_temperature;BME280_humidity;BME280_pressure;Samples;Min_cycle;Max_cycle;Signal;HPM_P1;HPM_P2
2021/12/22 09:39:55;;;;;;;42.20;25.77;;;-2.30;99.90;;;;;;5091652;28;20385;-62
2021/12/22 09:42:20;;;;;;;43.35;25.60;;;-2.20;99.90;;;;;;5089964;28;20048;-62
2021/12/22 09:44:47;;;;;;;37.53;20.02;;;-2.20;99.90;;;;;;5090784;28;20086;-62
2021/12/22 09:47:26;;;;;;;31.40;17.67;;;-2.20;99.90;;;;;;5089628;28;20110;-62
2021/12/22 09:52:30;;;;;;;35.07;18.03;;;-2.10;99.90;;;;;;5089669;28;20056;-63
2021/12/22 09:54:59;;;;;;;36.67;19.08;;;-2.10;99.90;;;;;;5089670;28;20574;-62
2021/12/22 09:57:26;;;;;;;34.77;18.17;;;-2.10;99.90;;;;;;5089741;28;20384;-62
2021/12/22 09:59:54;;;;;;;30.67;17.03;;;-2.00;99.90;;;;;;5089232;28;20071;-61
2021/12/22 10:02:22;;;;;;;29.90;16.67;;;-2.00;99.90;;;;;;5078709;28;20046;-62
2021/12/22 10:04:49;;;;;;;30.67;16.80;;;-1.90;99.90;;;;;;5076393;28;20123;-62
2021/12/22 10:07:23;;;;;;;29.83;16.03;;;-1.90;99.90;;;;;;5087345;28;20456;-62
2021/12/22 10:09:50;;;;;;;32.27;16.83;;;-1.90;99.90;;;;;;5077902;28;20055;-62
2021/12/22 10:12:20;;;;;;;30.00;16.77;;;-1.80;99.90;;;;;;5074457;28;20116;-64
2021/12/22 10:14:58;;;;;;;32.30;17.10;;;-1.80;99.90;;;;;;5076186;28;20048;-62
2021/12/22 10:17:38;;;;;;;33.40;16.80;;;-1.80;99.90;;;;;;5072106;28;20052;-63
2021/12/22 10:20:10;;;;;;;29.40;16.50;;;-1.70;99.90;;;;;;5070333;28;20074;-62
2021/12/22 10:22:48;;;;;;;30.87;17.20;;;-1.70;99.90;;;;;;5079642;28;20078;-63
2021/12/22 10:25:23;;;;;;;26.67;15.30;;;-1.70;99.90;;;;;;5076219;28;20392;-63
2021/12/22 10:28:02;;;;;;;28.33;16.43;;;-1.70;99.90;;;;;;5069792;28;20083;-62
2021/12/22 10:30:34;;;;;;;28.03;15.83;;;-1.60;99.90;;;;;;5068719;28;20515;-62
2021/12/22 10:33:05;;;;;;;31.17;16.37;;;-1.60;99.90;;;;;;5076965;28;20041;-62
2021/12/22 10:35:33;;;;;;;27.67;15.40;;;-1.60;99.90;;;;;;5079308;28;20048;-61
2021/12/22 10:38:01;;;;;;;32.13;15.90;;;-1.50;99.90;;;;;;5076263;28;20102;-62
2021/12/22 10:40:51;;;;;;;28.93;16.27;;;-1.50;99.90;;;;;;5079023;28;20498;-61
2021/12/22 10:43:20;;;;;;;29.13;15.40;;;-1.50;99.90;;;;;;5068464;28;20099;-63
2021/12/22 10:45:51;;;;;;;31.17;18.40;;;-1.40;99.90;;;;;;5069895;28;20099;-62
2021/12/22 10:51:08;;;;;;;27.20;15.80;;;-1.40;99.90;;;;;;5055782;28;20063;-62
2021/12/22 10:53:42;;;;;;;26.90;15.50;;;-1.30;99.90;;;;;;5056262;28;20127;-62
2021/12/22 10:56:08;;;;;;;28.23;15.80;;;-1.30;99.90;;;;;;5059015;28;20087;-61
2021/12/22 10:58:34;;;;;;;26.27;15.45;;;-1.30;99.90;;;;;;5055732;28;20076;-62
2021/12/22 11:01:09;;;;;;;;;;;-1.30;99.90;;;;;;5055355;28;20128;-62
2021/12/22 11:03:40;;;;;;;25.20;15.20;;;-1.20;99.90;;;;;;5055071;28;20427;-62
2021/12/22 11:06:21;;;;;;;26.30;15.00;;;-1.20;99.90;;;;;;5056033;28;20366;-62
2021/12/22 11:09:02;;;;;;;27.97;15.17;;;-1.20;99.90;;;;;;5055533;28;20056;-62
2021/12/22 11:11:39;;;;;;;26.13;14.77;;;-1.20;99.90;;;;;;5055849;28;20126;-62
2021/12/22 11:14:25;;;;;;;27.73;14.87;;;-1.20;99.90;;;;;;5055107;28;20059;-62
2021/12/22 11:16:54;;;;;;;26.40;15.35;;;-1.20;99.90;;;;;;5056487;28;20057;-61
2021/12/22 11:19:21;;;;;;;26.17;14.47;;;-1.10;99.90;;;;;;5055700;28;20041;-61
2021/12/22 11:22:02;;;;;;;40.03;21.83;;;-1.10;99.90;;;;;;5055702;28;20092;-61
2021/12/22 11:24:30;;;;;;;49.53;27.60;;;-1.10;99.90;;;;;;5054647;28;20049;-63
2021/12/22 11:26:57;;;;;;;41.57;23.10;;;-1.10;99.90;;;;;;5055609;28;20049;-61
2021/12/22 11:29:24;;;;;;;29.70;16.77;;;-1.10;99.90;;;;;;5054755;28;20089;-64
2021/12/22 11:31:51;;;;;;;26.77;16.13;;;-1.10;99.90;;;;;;5056007;28;20080;-61
2021/12/22 11:34:18;;;;;;;27.40;14.73;;;-1.10;99.90;;;;;;5054384;28;20084;-64
2021/12/22 11:36:45;;;;;;;24.00;14.67;;;-1.00;99.90;;;;;;5055692;28;20532;-64
2021/12/22 11:39:11;;;;;;;26.70;14.93;;;-1.00;99.90;;;;;;5054187;28;20056;-62
2021/12/22 11:41:53;;;;;;;;;;;-1.00;99.90;;;;;;5054678;28;20059;-63
2021/12/22 11:44:19;;;;;;;22.67;14.30;;;-1.00;99.90;;;;;;5055158;28;19927;-62
2021/12/22 11:46:46;;;;;;;25.02;14.88;;;-1.00;99.90;;;;;;5054131;28;20044;-62
2021/12/22 11:49:12;;;;;;;28.27;15.87;;;-0.90;99.90;;;;;;5055240;28;20045;-62
2021/12/22 11:51:37;;;;;;;30.77;15.27;;;-0.90;99.90;;;;;;5055063;28;20049;-63
2021/12/22 11:54:10;;;;;;;24.77;15.43;;;-0.90;99.90;;;;;;5054384;28;20041;-61
2021/12/22 11:56:43;;;;;;;28.63;15.57;;;-0.80;99.90;;;;;;5054115;28;20553;-62
2021/12/22 11:59:27;;;;;;;29.33;16.00;;;-0.80;99.90;;;;;;5053964;28;20044;-62
2021/12/22 12:02:33;;;;;;;24.53;15.20;;;-0.80;99.90;;;;;;5053470;28;20480;-62
2021/12/22 12:05:26;;;;;;;28.80;16.07;;;-0.70;99.90;;;;;;5032711;28;20492;-62
2021/12/22 12:07:59;;;;;;;27.17;14.83;;;-0.70;99.90;;;;;;5008792;28;20150;-62
2021/12/22 12:10:33;;;;;;;27.43;14.70;;;-0.70;99.90;;;;;;5048227;28;20044;-62
2021/12/22 12:13:05;;;;;;;22.83;14.00;;;-0.70;99.90;;;;;;5056328;28;20073;-62
2021/12/22 12:21:50;;;;;;;26.93;14.87;;;-0.60;99.90;;;;;;5060322;28;20098;-62
2021/12/22 12:24:31;;;;;;;24.20;14.73;;;-0.60;99.90;;;;;;5052965;28;20045;-63
2021/12/22 12:27:01;;;;;;;23.43;13.90;;;-0.60;99.90;;;;;;5054622;28;20037;-62
2021/12/22 12:29:49;;;;;;;24.37;14.57;;;-0.60;99.90;;;;;;5055977;28;20053;-62
2021/12/22 12:32:44;;;;;;;;;;;-0.60;99.90;;;;;;5062352;28;20045;-62
2021/12/22 12:35:19;;;;;;;26.93;14.57;;;-0.50;99.90;;;;;;5045804;28;19936;-61
2021/12/22 12:37:59;;;;;;;22.80;13.50;;;-0.50;99.90;;;;;;5063374;28;20250;-62
2021/12/22 12:41:11;;;;;;;26.13;14.67;;;-0.50;99.90;;;;;;5054961;28;20057;-62
2021/12/22 12:43:47;;;;;;;26.80;13.83;;;-0.50;99.90;;;;;;5065617;28;20057;-62
2021/12/22 12:46:28;;;;;;;24.58;13.88;;;-0.50;99.90;;;;;;5059616;28;20052;-61
2021/12/22 12:49:20;;;;;;;24.60;14.53;;;-0.50;99.90;;;;;;5060111;28;20045;-62
2021/12/22 12:51:47;;;;;;;23.87;14.07;;;-0.50;99.90;;;;;;5058124;28;20400;-62
2021/12/22 12:54:15;;;;;;;24.60;14.13;;;-0.50;99.90;;;;;;5053757;28;20052;-61
2021/12/22 12:56:45;;;;;;;26.73;15.07;;;-0.50;99.90;;;;;;5064420;28;20491;-62
2021/12/22 12:59:13;;;;;;;27.53;14.23;;;-0.50;99.90;;;;;;5053708;28;20049;-62
2021/12/22 13:01:45;;;;;;;27.47;14.80;;;-0.50;99.90;;;;;;5060281;28;20098;-61
2021/12/22 13:04:23;;;;;;;28.07;14.77;;;-0.50;99.90;;;;;;5069325;28;20040;-62
2021/12/22 13:06:54;;;;;;;26.63;15.17;;;-0.50;99.90;;;;;;5056343;28;20052;-62
2021/12/22 13:09:50;;;;;;;27.27;14.37;;;-0.50;99.90;;;;;;5054162;28;20389;-62
2021/12/22 13:17:57;;;;;;;26.00;14.13;;;-0.50;99.90;;;;;;5063754;28;20056;-62
2021/12/22 13:20:29;;;;;;;25.80;14.20;;;-0.50;99.90;;;;;;5067236;28;20047;-61
2021/12/22 13:22:57;;;;;;;25.17;13.93;;;-0.40;99.90;;;;;;5063833;28;20123;-62
2021/12/22 13:25:27;;;;;;;23.57;14.03;;;-0.40;99.90;;;;;;5073540;28;20123;-61
2021/12/22 13:28:03;;;;;;;23.23;13.77;;;-0.40;99.90;;;;;;5053468;28;20045;-61
2021/12/22 13:30:52;;;;;;;21.83;14.15;;;-0.40;99.90;;;;;;5065385;28;20052;-63
2021/12/22 13:33:35;;;;;;;27.13;17.20;;;-0.40;99.90;;;;;;5055298;28;20091;-61
2021/12/22 13:36:05;;;;;;;24.57;14.60;;;-0.40;99.90;;;;;;5064115;28;20476;-63
2021/12/22 13:38:35;;;;;;;25.33;15.77;;;-0.50;99.90;;;;;;5049921;28;20053;-62
2021/12/22 13:41:03;;;;;;;24.47;15.23;;;-0.50;99.90;;;;;;5059850;28;20118;-61
2021/12/22 13:43:36;;;;;;;24.27;14.17;;;-0.50;99.90;;;;;;5062820;28;20484;-61
2021/12/22 13:46:10;;;;;;;24.13;13.93;;;-0.50;99.90;;;;;;5067442;28;20106;-62
2021/12/22 13:49:12;;;;;;;25.97;13.87;;;-0.50;99.90;;;;;;5070150;28;20098;-64
2021/12/22 13:51:51;;;;;;;22.50;13.13;;;-0.50;99.90;;;;;;5071930;28;20048;-62
2021/12/22 13:54:27;;;;;;;23.67;13.53;;;-0.50;99.90;;;;;;5071961;28;20101;-63
2021/12/22 13:56:58;;;;;;;23.58;14.25;;;-0.50;99.90;;;;;;5072899;28;20500;-61
2021/12/22 13:59:27;;;;;;;24.13;13.47;;;-0.60;99.90;;;;;;5072916;28;20102;-61
2021/12/22 14:01:58;;;;;;;23.80;13.53;;;-0.50;99.90;;;;;;5073102;28;20044;-61
2021/12/22 14:04:29;;;;;;;21.63;13.77;;;-0.50;99.90;;;;;;5072199;28;20056;-61
2021/12/22 14:07:21;;;;;;;23.50;13.80;;;-0.50;99.90;;;;;;5063767;28;20048;-61
2021/12/22 14:09:52;;;;;;;23.43;13.30;;;-0.50;99.90;;;;;;5052117;28;20132;-62
2021/12/22 14:12:24;;;;;;;23.42;13.50;;;-0.50;99.90;;;;;;5051825;28;20136;-61
2021/12/22 14:14:51;;;;;;;20.93;13.17;;;-0.50;99.90;;;;;;5052662;28;20496;-61
2021/12/22 14:17:32;;;;;;;21.47;13.20;;;-0.50;99.90;;;;;;5053626;28;20048;-61
2021/12/22 14:20:01;;;;;;;24.33;14.35;;;-0.50;99.90;;;;;;5053298;28;20052;-60
2021/12/22 14:22:33;;;;;;;22.85;13.27;;;-0.50;99.90;;;;;;5052670;28;20143;-61
2021/12/22 14:25:04;;;;;;;25.07;13.97;;;-0.50;99.90;;;;;;5053190;28;20088;-60
2021/12/22 14:27:31;;;;;;;24.23;13.50;;;-0.50;99.90;;;;;;5056515;28;20049;-61
2021/12/22 14:30:00;;;;;;;103.40;47.87;;;-0.50;99.90;;;;;;5056534;28;20091;-61
2021/12/22 14:32:33;;;;;;;29.10;15.03;;;-0.60;99.90;;;;;;5055602;28;20056;-61
2021/12/22 14:35:20;;;;;;;25.03;15.07;;;-0.60;99.90;;;;;;5055423;28;20045;-61
2021/12/22 14:37:54;;;;;;;23.93;14.63;;;-0.60;99.90;;;;;;5054996;28;20079;-61
2021/12/22 14:40:22;;;;;;;27.80;14.00;;;-0.60;99.90;;;;;;5055563;28;20045;-61
2021/12/22 14:43:14;;;;;;;25.70;13.40;;;-0.70;99.90;;;;;;5055462;28;20048;-62
2021/12/22 14:45:53;;;;;;;26.10;13.70;;;-0.70;99.90;;;;;;5051385;28;20127;-61
2021/12/22 14:48:30;;;;;;;23.70;14.53;;;-0.70;99.90;;;;;;5055723;28;20135;-61
2021/12/22 14:51:08;;;;;;;29.98;16.13;;;-0.70;99.90;;;;;;5055572;28;20056;-61
2021/12/22 14:53:42;;;;;;;25.33;14.20;;;-0.70;99.90;;;;;;5055284;28;20053;-61
2021/12/22 14:56:19;;;;;;;22.57;14.17;;;-0.80;99.90;;;;;;5055287;28;20057;-61
2021/12/22 14:58:50;;;;;;;25.35;14.43;;;-0.80;99.90;;;;;;5055945;28;20091;-61
2021/12/22 15:01:19;;;;;;;21.83;12.90;;;-0.80;99.90;;;;;;5055810;28;20481;-61
2021/12/22 15:03:46;;;;;;;24.10;13.23;;;-0.90;99.90;;;;;;5055138;28;20084;-61
2021/12/22 15:06:15;;;;;;;22.97;13.53;;;-0.90;99.90;;;;;;5055309;28;20052;-61
2021/12/22 15:08:41;;;;;;;21.03;13.23;;;-0.90;99.90;;;;;;5056079;28;20397;-61
2021/12/22 15:11:08;;;;;;;23.08;14.07;;;-0.90;99.90;;;;;;5055782;28;20393;-62
2021/12/22 15:13:35;;;;;;;23.73;14.87;;;-1.00;99.90;;;;;;5055948;28;20123;-61
2021/12/22 15:16:00;;;;;;;26.23;14.43;;;-1.00;99.90;;;;;;5057282;28;20045;-61
2021/12/22 15:18:26;;;;;;;22.75;13.20;;;-1.00;99.90;;;;;;5064199;28;20191;-62
2021/12/22 15:20:52;;;;;;;24.38;15.80;;;-1.00;99.90;;;;;;5065945;28;20057;-62
2021/12/22 15:23:19;;;;;;;23.25;13.45;;;-1.10;99.90;;;;;;5063120;28;20053;-61
2021/12/22 15:25:46;;;;;;;;;;;-1.00;99.90;;;;;;5063108;28;20037;-61
2021/12/22 15:28:12;;;;;;;22.80;13.68;;;-1.10;99.90;;;;;;5063098;28;19967;-61
2021/12/22 15:30:39;;;;;;;25.27;14.40;;;-1.10;99.90;;;;;;5063121;28;20073;-61
2021/12/22 15:33:06;;;;;;;24.50;13.83;;;-1.10;99.90;;;;;;5064148;28;20044;-61
2021/12/22 15:35:33;;;;;;;22.80;13.73;;;-1.10;99.90;;;;;;5062399;28;20123;-61
2021/12/22 15:37:59;;;;;;;22.40;14.60;;;-1.10;99.90;;;;;;5060145;28;20052;-61
2021/12/22 15:40:25;;;;;;;23.85;14.13;;;-1.10;99.90;;;;;;5065180;28;20546;-61
2021/12/22 15:42:50;;;;;;;25.00;14.07;;;-1.10;99.90;;;;;;5062035;28;20052;-61
2021/12/22 15:45:16;;;;;;;22.30;14.40;;;-1.10;99.90;;;;;;5068790;28;20056;-61
2021/12/22 15:47:42;;;;;;;24.85;14.95;;;-1.10;99.90;;;;;;5060605;28;20102;-61
2021/12/22 15:50:10;;;;;;;26.58;14.30;;;-1.20;99.90;;;;;;5065479;28;20366;-62
2021/12/22 15:52:42;;;;;;;21.77;13.13;;;-1.20;99.90;;;;;;5066446;28;20048;-61
2021/12/22 15:55:08;;;;;;;24.30;14.00;;;-1.20;99.90;;;;;;5055603;28;20059;-61
2021/12/22 15:57:34;;;;;;;;;;;-1.20;99.90;;;;;;5055074;28;20049;-62
2021/12/22 16:00:00;;;;;;;23.93;13.37;;;-1.20;99.90;;;;;;5053749;28;20273;-61
2021/12/22 16:02:26;;;;;;;23.75;13.85;;;-1.20;99.90;;;;;;5056506;28;20040;-62
2021/12/22 16:04:52;;;;;;;;;;;-1.20;99.90;;;;;;5059712;28;20057;-62
2021/12/22 16:07:18;;;;;;;23.27;13.37;;;-1.20;99.90;;;;;;5037430;28;20284;-62
2021/12/22 16:09:43;;;;;;;22.42;13.82;;;-1.20;99.90;;;;;;5058268;28;20052;-63
2021/12/22 16:12:09;;;;;;;23.17;14.38;;;-1.30;99.90;;;;;;5061134;28;20079;-63
2021/12/22 16:14:35;;;;;;;21.45;13.90;;;-1.30;99.90;;;;;;5055150;28;20037;-62
2021/12/22 16:17:01;;;;;;;23.70;14.18;;;-1.30;99.90;;;;;;5059516;28;20587;-62
2021/12/22 16:19:27;;;;;;;28.35;15.45;;;-1.30;99.90;;;;;;5062080;28;20090;-63
2021/12/22 16:21:52;;;;;;;30.52;15.82;;;-1.30;99.90;;;;;;5074031;28;20044;-62
2021/12/22 16:24:18;;;;;;;21.15;13.40;;;-1.30;99.90;;;;;;5053336;28;20366;-62
2021/12/22 16:26:44;;;;;;;21.70;14.30;;;-1.40;99.90;;;;;;5063167;28;20052;-62
2021/12/22 16:29:10;;;;;;;24.58;14.43;;;-1.40;99.90;;;;;;5054586;28;20397;-63
2021/12/22 16:31:35;;;;;;;22.60;14.18;;;-1.40;99.90;;;;;;5059390;28;20053;-61
2021/12/22 16:34:01;;;;;;;23.13;14.55;;;-1.40;99.90;;;;;;5073114;28;20048;-63
2021/12/22 16:36:27;;;;;;;26.67;14.45;;;-1.40;99.90;;;;;;5074171;28;20059;-64
2021/12/22 16:38:53;;;;;;;23.15;14.10;;;-1.40;99.90;;;;;;5066372;28;20053;-63
2021/12/22 16:41:19;;;;;;;;;;;-1.40;99.90;;;;;;5072793;28;20055;-63
2021/12/22 16:43:45;;;;;;;24.77;15.13;;;-1.40;99.90;;;;;;5072503;28;19920;-63
2021/12/22 16:46:11;;;;;;;23.25;14.52;;;-1.40;99.90;;;;;;5068324;28;20489;-63
2021/12/22 16:48:37;;;;;;;24.73;14.90;;;-1.40;99.90;;;;;;5067750;28;20172;-63
2021/12/22 16:51:03;;;;;;;22.30;13.25;;;-1.40;99.90;;;;;;5074003;28;20041;-65
2021/12/22 16:53:30;;;;;;;25.25;15.20;;;-1.40;99.90;;;;;;5070442;28;20036;-63
2021/12/22 16:55:55;;;;;;;26.08;14.45;;;-1.40;99.90;;;;;;5054311;28;20106;-63
2021/12/22 16:58:21;;;;;;;21.73;13.40;;;-1.40;99.90;;;;;;5068295;28;20461;-63
2021/12/22 17:00:48;;;;;;;26.15;13.85;;;-1.40;99.90;;;;;;5073337;28;20079;-64
2021/12/22 17:03:15;;;;;;;25.53;13.60;;;-1.40;99.90;;;;;;5073779;28;20048;-63
2021/12/22 17:05:46;;;;;;;22.23;13.77;;;-1.40;99.90;;;;;;5058641;28;20126;-63
2021/12/22 17:08:13;;;;;;;22.70;13.47;;;-1.40;99.90;;;;;;5056959;28;20409;-63
2021/12/22 17:10:39;;;;;;;22.80;13.87;;;-1.40;99.90;;;;;;5058003;28;20122;-63
2021/12/22 17:13:07;;;;;;;24.50;15.23;;;-1.40;99.90;;;;;;5069445;28;20530;-63
2021/12/22 17:15:34;;;;;;;24.10;14.10;;;-1.40;99.90;;;;;;5067661;28;20041;-63
2021/12/22 17:18:01;;;;;;;23.07;14.23;;;-1.40;99.90;;;;;;5068298;28;20059;-63
2021/12/22 17:20:29;;;;;;;25.27;14.97;;;-1.40;99.90;;;;;;5066424;28;20056;-64
2021/12/22 17:22:55;;;;;;;26.87;14.30;;;-1.40;99.90;;;;;;5074264;28;20365;-63
2021/12/22 17:25:21;;;;;;;24.10;14.63;;;-1.40;99.90;;;;;;5063602;28;20052;-63
2021/12/22 17:27:47;;;;;;;27.38;15.55;;;-1.40;99.90;;;;;;5068240;28;20049;-63
2021/12/22 17:30:20;;;;;;;36.27;23.20;;;-1.40;99.90;;;;;;5072632;28;20127;-64
2021/12/22 17:32:46;;;;;;;23.03;14.40;;;-1.40;99.90;;;;;;5062177;28;20045;-63
2021/12/22 17:35:13;;;;;;;25.67;16.17;;;-1.40;99.90;;;;;;5053480;28;20084;-62
2021/12/22 17:37:39;;;;;;;24.73;14.43;;;-1.40;99.90;;;;;;5056323;28;20051;-64
2021/12/22 17:40:08;;;;;;;22.73;14.38;;;-1.40;99.90;;;;;;5065951;28;20501;-63
2021/12/22 17:42:34;;;;;;;26.23;14.70;;;-1.40;99.90;;;;;;5072467;28;20102;-62
2021/12/22 17:44:59;;;;;;;26.83;15.50;;;-1.40;99.90;;;;;;5057799;28;20045;-62
2021/12/22 17:47:25;;;;;;;26.33;15.25;;;-1.40;99.90;;;;;;5057782;28;20056;-62
2021/12/22 17:49:50;;;;;;;27.30;16.27;;;-1.40;99.90;;;;;;5056767;28;20054;-62
2021/12/22 17:52:16;;;;;;;27.48;15.57;;;-1.40;99.90;;;;;;5064590;28;20045;-64
2021/12/22 17:54:43;;;;;;;24.65;15.30;;;-1.40;99.90;;;;;;5058378;28;20489;-62
2021/12/22 17:57:09;;;;;;;29.50;15.67;;;-1.40;99.90;;;;;;5062267;28;20044;-64
2021/12/22 17:59:35;;;;;;;26.45;15.10;;;-1.40;99.90;;;;;;5062451;28;20045;-63
2021/12/22 18:02:00;;;;;;;24.50;14.90;;;-1.40;99.90;;;;;;5067028;28;20048;-63
2021/12/22 18:04:27;;;;;;;29.17;15.65;;;-1.40;99.90;;;;;;5065082;28;20045;-66
2021/12/22 18:06:53;;;;;;;;;;;-1.40;99.90;;;;;;5067037;28;20045;-63
2021/12/22 18:09:19;;;;;;;26.70;14.83;;;-1.40;99.90;;;;;;5065670;28;19924;-63
2021/12/22 18:11:47;;;;;;;27.67;14.93;;;-1.40;99.90;;;;;;5065329;28;20045;-63
2021/12/22 18:14:16;;;;;;;28.57;15.53;;;-1.40;99.90;;;;;;5061388;28;20653;-63
2021/12/22 18:16:44;;;;;;;27.67;14.93;;;-1.40;99.90;;;;;;5065193;28;20073;-63
2021/12/22 18:19:09;;;;;;;27.50;15.73;;;-1.30;99.90;;;;;;5065869;28;20127;-63
2021/12/22 18:21:35;;;;;;;24.65;15.65;;;-1.30;99.90;;;;;;5066375;28;20182;-64
2021/12/22 18:24:01;;;;;;;26.77;15.38;;;-1.30;99.90;;;;;;5065940;28;20043;-63
2021/12/22 18:26:27;;;;;;;26.77;15.50;;;-1.30;99.90;;;;;;5064321;28;20056;-65
2021/12/22 18:28:53;;;;;;;26.40;16.03;;;-1.30;99.90;;;;;;5065301;28;20063;-64
2021/12/22 18:31:19;;;;;;;26.10;15.88;;;-1.30;99.90;;;;;;5076699;28;20127;-64
2021/12/22 18:33:46;;;;;;;26.77;16.77;;;-1.30;99.90;;;;;;5075429;28;20052;-64
2021/12/22 18:36:13;;;;;;;28.07;15.50;;;-1.30;99.90;;;;;;5066077;28;20049;-64
2021/12/22 18:38:42;;;;;;;28.50;16.43;;;-1.30;99.90;;;;;;5063679;28;20057;-64
2021/12/22 18:41:25;;;;;;;27.30;15.83;;;-1.30;99.90;;;;;;5069590;28;20076;-63
2021/12/22 18:43:54;;;;;;;28.90;17.60;;;-1.30;99.90;;;;;;5075648;28;20476;-64
2021/12/22 18:46:24;;;;;;;26.73;16.17;;;-1.20;99.90;;;;;;5076428;28;20056;-64
2021/12/22 18:48:54;;;;;;;24.87;15.53;;;-1.20;99.90;;;;;;5075402;28;20056;-63
2021/12/22 18:51:23;;;;;;;23.33;15.17;;;-1.20;99.90;;;;;;5076246;28;20131;-64
2021/12/22 18:53:50;;;;;;;32.60;16.67;;;-1.20;99.90;;;;;;5076352;28;20084;-64
2021/12/22 18:56:15;;;;;;;25.50;16.57;;;-1.20;99.90;;;;;;5073798;28;20048;-64
2021/12/22 18:58:41;;;;;;;27.50;16.65;;;-1.20;99.90;;;;;;5064730;28;20067;-63
2021/12/22 19:01:07;;;;;;;28.88;16.38;;;-1.20;99.90;;;;;;5064904;28;20127;-64
2021/12/22 19:03:33;;;;;;;28.52;16.73;;;-1.20;99.90;;;;;;5065694;28;20108;-63
2021/12/22 19:05:59;;;;;;;31.23;17.15;;;-1.20;99.90;;;;;;5063651;28;20076;-63
2021/12/22 19:08:24;;;;;;;27.02;16.77;;;-1.20;99.90;;;;;;5058653;28;20060;-63
2021/12/22 19:10:50;;;;;;;28.55;16.50;;;-1.20;99.90;;;;;;5055524;28;20045;-63
2021/12/22 19:13:17;;;;;;;27.88;17.00;;;-1.10;99.90;;;;;;5054999;28;20538;-63
2021/12/22 19:15:43;;;;;;;34.33;19.13;;;-1.10;99.90;;;;;;5056456;28;20072;-64
2021/12/22 19:18:09;;;;;;;29.98;16.88;;;-1.10;99.90;;;;;;5054869;28;20132;-64
2021/12/22 19:20:36;;;;;;;26.80;16.13;;;-1.10;99.90;;;;;;5054600;28;20183;-64
2021/12/22 19:23:02;;;;;;;28.60;16.80;;;-1.10;99.90;;;;;;5055758;28;20064;-64
2021/12/22 19:25:28;;;;;;;25.98;16.23;;;-1.10;99.90;;;;;;5054833;28;20044;-64
2021/12/22 19:27:53;;;;;;;28.77;16.35;;;-1.10;99.90;;;;;;5055830;28;20392;-63
2021/12/22 19:30:21;;;;;;;28.63;16.52;;;-1.10;99.90;;;;;;5055673;28;20464;-63
2021/12/22 19:32:47;;;;;;;26.30;15.10;;;-1.00;99.90;;;;;;5054492;28;20049;-65
2021/12/22 19:35:14;;;;;;;23.30;16.02;;;-1.00;99.90;;;;;;5055562;28;20389;-63
2021/12/22 19:37:39;;;;;;;26.03;15.40;;;-1.00;99.90;;;;;;5054463;28;20048;-63
2021/12/22 19:40:08;;;;;;;28.63;15.57;;;-1.00;99.90;;;;;;5053984;28;20550;-63
2021/12/22 19:42:33;;;;;;;22.03;14.33;;;-1.00;99.90;;;;;;5054371;28;20056;-63
2021/12/22 19:44:59;;;;;;;25.27;14.98;;;-1.00;99.90;;;;;;5054594;28;20465;-63
2021/12/22 19:47:25;;;;;;;26.65;15.00;;;-1.00;99.90;;;;;;5054313;28;20040;-63
2021/12/22 19:49:51;;;;;;;24.45;16.10;;;-1.00;99.90;;;;;;5054536;28;20508;-63
2021/12/22 19:52:17;;;;;;;27.67;16.13;;;-1.00;99.90;;;;;;5055138;28;20082;-64
2021/12/22 19:54:43;;;;;;;;;;;-1.00;99.90;;;;;;5055516;28;20041;-62
2021/12/22 19:57:09;;;;;;;28.77;15.47;;;-1.00;99.90;;;;;;5054152;28;19921;-62
2021/12/22 19:59:34;;;;;;;25.13;15.43;;;-1.00;99.90;;;;;;5053819;28;20049;-63
2021/12/22 20:02:00;;;;;;;25.45;15.07;;;-1.00;99.90;;;;;;5055040;28;20052;-64
2021/12/22 20:04:27;;;;;;;28.63;15.25;;;-1.00;99.90;;;;;;5054464;28;20045;-63
2021/12/22 20:06:53;;;;;;;29.17;16.80;;;-1.00;99.90;;;;;;5053824;28;20049;-63
2021/12/22 20:09:19;;;;;;;;;;;-1.00;99.90;;;;;;5054159;28;20045;-64
2021/12/22 20:11:45;;;;;;;27.23;14.85;;;-1.00;99.90;;;;;;5054805;28;20331;-64
2021/12/22 20:14:11;;;;;;;;;;;-1.00;99.90;;;;;;5055064;28;20045;-63
2021/12/22 20:16:37;;;;;;;26.37;15.47;;;-1.00;99.90;;;;;;5054639;28;20077;-65
2021/12/22 20:19:03;;;;;;;26.85;15.48;;;-1.00;99.90;;;;;;5054379;28;20131;-64
2021/12/22 20:21:29;;;;;;;23.92;15.73;;;-1.00;99.90;;;;;;5054630;28;20076;-64
2021/12/22 20:23:55;;;;;;;27.55;16.83;;;-0.90;99.90;;;;;;5052738;28;20059;-64
2021/12/22 20:26:20;;;;;;;26.52;16.52;;;-0.90;99.90;;;;;;5054507;28;20071;-65
2021/12/22 20:28:46;;;;;;;29.55;18.20;;;-1.00;99.90;;;;;;5054489;28;20071;-63
2021/12/22 20:31:12;;;;;;;40.85;22.98;;;-1.00;99.90;;;;;;5053222;28;20041;-63
2021/12/22 20:33:38;;;;;;;45.72;27.38;;;-0.90;99.90;;;;;;5054323;28;20045;-63
2021/12/22 20:36:04;;;;;;;27.52;16.67;;;-0.90;99.90;;;;;;5053592;28;20052;-65
2021/12/22 20:38:30;;;;;;;24.75;15.55;;;-0.90;99.90;;;;;;5053986;28;20049;-62
2021/12/22 20:40:56;;;;;;;23.70;15.88;;;-0.90;99.90;;;;;;5064962;28;20048;-63
2021/12/22 20:43:22;;;;;;;29.30;15.35;;;-1.00;99.90;;;;;;5062704;28;20119;-63
2021/12/22 20:45:50;;;;;;;22.05;14.43;;;-0.90;99.90;;;;;;5074063;28;20045;-63
2021/12/22 20:48:20;;;;;;;23.33;14.07;;;-1.00;99.90;;;;;;5073141;28;20099;-63
2021/12/22 20:50:47;;;;;;;24.60;15.40;;;-0.90;99.90;;;;;;5074940;28;20444;-62
2021/12/22 20:53:13;;;;;;;23.43;14.37;;;-0.90;99.90;;;;;;5074048;28;20044;-62
2021/12/22 20:55:39;;;;;;;;;;;-0.90;99.90;;;;;;5074317;28;20055;-62
2021/12/22 20:58:05;;;;;;;25.20;14.40;;;-0.90;99.90;;;;;;5073018;28;19924;-62
2021/12/22 21:00:31;;;;;;;23.47;13.87;;;-0.90;99.90;;;;;;5073940;28;20044;-62
2021/12/22 21:02:57;;;;;;;;;;;-0.90;99.90;;;;;;5055697;28;20056;-64
2021/12/22 21:05:25;;;;;;;23.43;13.67;;;-0.90;99.90;;;;;;5054720;28;19920;-62
2021/12/22 21:07:51;;;;;;;21.70;13.53;;;-0.90;99.90;;;;;;5035812;28;20503;-62
2021/12/22 21:10:19;;;;;;;24.10;13.77;;;-0.80;99.90;;;;;;5052907;28;20053;-62
2021/12/22 21:12:51;;;;;;;22.30;13.23;;;-0.90;99.90;;;;;;5053008;28;20057;-63
2021/12/22 21:15:17;;;;;;;22.73;13.17;;;1.00;99.90;;;;;;5053693;28;20060;-62
2021/12/22 21:17:43;;;;;;;24.70;14.93;;;-0.90;99.90;;;;;;5069084;28;20048;-62
2021/12/22 21:20:11;;;;;;;22.15;14.00;;;-0.90;99.90;;;;;;5064039;28;20075;-62
2021/12/22 21:22:38;;;;;;;25.20;16.30;;;-0.80;99.90;;;;;;5062316;28;20512;-64
2021/12/22 21:25:04;;;;;;;;;;;-0.90;99.90;;;;;;5060967;28;20053;-63
2021/12/22 21:27:31;;;;;;;24.10;14.40;;;-0.80;99.90;;;;;;5061151;28;19920;-63
2021/12/22 21:29:57;;;;;;;23.53;13.97;;;-0.80;99.90;;;;;;5064945;28;20056;-63
2021/12/22 21:32:23;;;;;;;22.40;14.32;;;-0.80;99.90;;;;;;5073539;28;20123;-63
